createdAt,value
2023-04-15T00:01:02.623Z,5.10
2023-04-15T00:03:30.027Z,5.22
2023-04-15T00:05:58.257Z,5.45
2023-04-15T00:08:25.570Z,4.82
2023-04-15T00:10:53.202Z,5.30
2023-04-15T00:13:20.297Z,5.32
2023-04-15T00:15:48.056Z,5.10
2023-04-15T00:18:14.816Z,4.80
2023-04-15T00:20:41.887Z,4.30
2023-04-15T00:23:08.638Z,5.78
2023-04-15T00:25:35.692Z,5.10
2023-04-15T00:28:02.723Z,4.53
2023-04-15T00:30:29.882Z,5.18
2023-04-15T00:32:56.790Z,4.80
2023-04-15T00:35:24.533Z,4.70
2023-04-15T00:37:51.582Z,5.13
2023-04-15T00:40:21.046Z,5.25
2023-04-15T00:42:48.223Z,6.55
2023-04-15T00:45:15.822Z,6.25
2023-04-15T00:47:43.802Z,5.93
2023-04-15T00:50:12.583Z,6.38
2023-04-15T00:52:40.980Z,6.47
2023-04-15T00:55:08.835Z,7.43
2023-04-15T00:57:36.282Z,6.35
2023-04-15T01:00:04.802Z,5.55
2023-04-15T01:02:32.804Z,6.15
2023-04-15T01:05:00.531Z,7.18
2023-04-15T01:07:27.909Z,6.70
2023-04-15T01:09:55.679Z,8.05
2023-04-15T01:12:23.277Z,7.13
2023-04-15T01:14:50.835Z,6.78
2023-04-15T01:17:17.804Z,6.95
2023-04-15T01:19:44.898Z,6.10
2023-04-15T01:22:11.848Z,7.78
2023-04-15T01:24:39.920Z,6.53
2023-04-15T01:27:06.695Z,6.57
2023-04-15T01:29:38.446Z,7.72
2023-04-15T01:32:05.820Z,6.60
2023-04-15T01:34:35.557Z,7.40
2023-04-15T01:37:02.596Z,8.02
2023-04-15T01:39:29.620Z,7.25
2023-04-15T01:41:57.329Z,8.50
2023-04-15T01:44:24.418Z,7.13
2023-04-15T01:46:51.241Z,7.07
2023-04-15T01:49:19.016Z,8.35
2023-04-15T01:51:45.893Z,7.18
2023-04-15T01:54:12.966Z,8.20
2023-04-15T01:56:39.802Z,6.45
2023-04-15T01:59:06.869Z,8.05
2023-04-15T02:01:34.100Z,7.20
2023-04-15T02:04:01.239Z,7.32
2023-04-15T02:06:28.317Z,8.20
2023-04-15T02:08:55.466Z,7.95
2023-04-15T02:11:23.175Z,7.28
2023-04-15T02:13:50.326Z,8.10
2023-04-15T02:16:21.413Z,7.78
2023-04-15T02:18:48.617Z,7.45
2023-04-15T02:21:15.387Z,7.40
2023-04-15T02:23:44.041Z,8.45
2023-04-15T02:26:11.034Z,8.20
2023-04-15T02:28:38.288Z,8.07
2023-04-15T02:31:08.234Z,7.50
2023-04-15T02:33:35.694Z,8.88
2023-04-15T02:36:02.604Z,8.02
2023-04-15T02:38:31.018Z,7.80
2023-04-15T02:40:57.861Z,8.60
2023-04-15T02:43:24.972Z,7.28
2023-04-15T02:45:52.279Z,7.25
2023-04-15T02:48:20.446Z,8.00
2023-04-15T02:50:48.014Z,8.07
2023-04-15T02:53:15.489Z,8.23
2023-04-15T02:55:43.036Z,8.68
2023-04-15T02:58:10.241Z,7.90
2023-04-15T03:00:37.065Z,8.15
2023-04-15T03:03:06.180Z,7.47
2023-04-15T03:05:33.325Z,7.85
2023-04-15T03:08:01.414Z,8.07
2023-04-15T03:10:28.573Z,8.13
2023-04-15T03:12:55.718Z,8.15
2023-04-15T03:15:23.128Z,8.07
2023-04-15T03:17:50.658Z,8.43
2023-04-15T03:20:17.571Z,8.05
2023-04-15T03:22:44.692Z,8.38
2023-04-15T03:25:11.486Z,7.05
2023-04-15T03:27:38.815Z,8.90
2023-04-15T03:30:06.757Z,7.28
2023-04-15T03:32:33.872Z,7.40
2023-04-15T03:35:00.835Z,8.68
2023-04-15T03:37:27.979Z,8.05
2023-04-15T03:39:54.806Z,9.73
2023-04-15T03:42:21.857Z,9.60
2023-04-15T03:44:48.721Z,13.40
2023-04-15T03:47:15.786Z,17.45
2023-04-15T03:49:42.547Z,16.48
2023-04-15T03:52:09.757Z,14.98
2023-04-15T03:54:36.773Z,13.18
2023-04-15T03:57:03.848Z,14.45
2023-04-15T03:59:31.919Z,12.60
2023-04-15T04:01:59.029Z,17.67
2023-04-15T04:04:26.124Z,19.15
2023-04-15T04:06:53.227Z,18.25
2023-04-15T04:09:20.027Z,16.98
2023-04-15T04:11:47.044Z,16.38
2023-04-15T04:14:13.811Z,14.07
2023-04-15T04:16:41.188Z,14.98
2023-04-15T04:19:08.016Z,15.30
2023-04-15T04:21:35.205Z,15.93
2023-04-15T04:24:02.171Z,15.45
2023-04-15T04:26:29.241Z,15.45
2023-04-15T04:28:56.228Z,12.80
2023-04-15T04:31:23.366Z,13.80
2023-04-15T04:33:50.212Z,13.10
2023-04-15T04:36:17.256Z,12.55
2023-04-15T04:38:44.099Z,11.40
2023-04-15T04:41:11.205Z,10.23
2023-04-15T04:43:37.965Z,9.88
2023-04-15T04:46:05.105Z,8.70
2023-04-15T04:48:31.875Z,9.20
2023-04-15T04:50:59.313Z,9.13
2023-04-15T04:53:26.433Z,9.35
2023-04-15T04:55:53.711Z,8.15
2023-04-15T04:58:20.660Z,8.15
2023-04-15T05:00:47.918Z,7.38
2023-04-15T05:03:14.951Z,7.10
2023-04-15T05:05:42.197Z,6.22
2023-04-15T05:08:08.970Z,6.68
2023-04-15T05:10:36.353Z,6.80
2023-04-15T05:13:03.152Z,7.15
2023-04-15T05:15:30.393Z,6.50
2023-04-15T05:17:57.656Z,6.57
2023-04-15T05:20:24.752Z,5.75
2023-04-15T05:22:51.512Z,4.35
2023-04-15T05:25:18.610Z,4.95
2023-04-15T05:27:45.867Z,5.28
2023-04-15T05:30:13.813Z,4.38
2023-04-15T05:32:40.978Z,4.30
2023-04-15T05:35:08.634Z,3.78
2023-04-15T05:37:36.188Z,5.65
2023-04-15T05:40:04.439Z,4.75
2023-04-15T05:42:31.455Z,4.15
2023-04-15T05:44:58.480Z,4.30
2023-04-15T05:47:25.320Z,4.47
2023-04-15T05:49:52.403Z,4.15
2023-04-15T05:52:19.180Z,3.67
2023-04-15T05:54:46.653Z,3.72
2023-04-15T05:57:13.429Z,2.60
2023-04-15T05:59:42.145Z,4.50
2023-04-15T06:02:10.651Z,5.25
2023-04-15T06:04:37.862Z,5.22
2023-04-15T06:07:04.836Z,4.55
2023-04-15T06:09:31.892Z,2.22
2023-04-15T06:11:59.213Z,4.55
2023-04-15T06:14:26.349Z,4.60
2023-04-15T06:16:53.163Z,3.85
2023-04-15T06:19:20.576Z,4.88
2023-04-15T06:21:47.485Z,4.03
2023-04-15T06:24:14.709Z,4.82
2023-04-15T06:26:41.596Z,5.30
2023-04-15T06:29:08.688Z,5.13
2023-04-15T06:31:35.935Z,1.85
2023-04-15T06:34:03.085Z,5.60
2023-04-15T06:36:29.948Z,4.18
2023-04-15T06:38:57.647Z,4.72
2023-04-15T06:41:24.628Z,4.72
2023-04-15T06:43:51.723Z,3.97
2023-04-15T06:46:19.011Z,4.30
2023-04-15T06:48:46.142Z,4.30
2023-04-15T06:51:13.067Z,4.13
2023-04-15T06:53:42.011Z,2.25
2023-04-15T06:56:09.637Z,3.55
2023-04-15T06:58:36.901Z,4.13
2023-04-15T07:01:04.500Z,3.70
2023-04-15T07:03:32.834Z,4.25
2023-04-15T07:05:59.932Z,4.50
2023-04-15T07:08:27.003Z,3.88
2023-04-15T07:10:54.197Z,4.03
2023-04-15T07:13:21.273Z,3.97
2023-04-15T07:15:48.087Z,3.70
2023-04-15T07:18:15.422Z,3.83
2023-04-15T07:20:43.138Z,3.10
2023-04-15T07:23:10.184Z,2.95
2023-04-15T07:25:37.001Z,3.22
2023-04-15T07:28:04.157Z,2.95
2023-04-15T07:30:30.935Z,2.63
2023-04-15T07:32:58.904Z,3.08
2023-04-15T07:35:26.663Z,2.42
2023-04-15T07:37:54.054Z,2.97
2023-04-15T07:40:24.378Z,4.38
2023-04-15T07:42:51.499Z,4.10
2023-04-15T07:45:18.341Z,3.10
2023-04-15T07:47:45.460Z,2.80
2023-04-15T07:50:12.370Z,2.95
2023-04-15T07:52:39.550Z,2.92
2023-04-15T07:55:08.468Z,2.67
2023-04-15T07:57:36.893Z,2.35
2023-04-15T08:00:07.565Z,2.25
2023-04-15T08:02:36.817Z,2.08
2023-04-15T08:05:05.308Z,1.55
2023-04-15T08:07:32.675Z,2.28
2023-04-15T08:09:59.452Z,1.95
2023-04-15T08:12:26.524Z,1.15
2023-04-15T08:14:53.313Z,2.60
2023-04-15T08:17:20.732Z,2.10
2023-04-15T08:19:48.407Z,2.65
2023-04-15T08:22:18.042Z,2.10
2023-04-15T08:24:45.847Z,1.50
2023-04-15T08:27:15.918Z,1.70
2023-04-15T08:29:42.816Z,0.65
2023-04-15T08:32:09.902Z,0.77
2023-04-15T08:34:36.861Z,1.85
2023-04-15T08:37:03.947Z,0.90
2023-04-15T08:39:31.133Z,1.00
2023-04-15T08:42:03.574Z,1.02
2023-04-15T08:44:34.102Z,1.80
2023-04-15T08:47:06.128Z,0.82
2023-04-15T08:49:34.907Z,1.20
2023-04-15T08:52:04.463Z,1.83
2023-04-15T08:54:31.562Z,1.40
2023-04-15T08:56:58.828Z,1.15
2023-04-15T08:59:25.797Z,0.90
2023-04-15T09:01:53.590Z,0.70
2023-04-15T09:04:20.625Z,0.93
2023-04-15T09:06:47.763Z,1.42
2023-04-15T09:09:14.656Z,1.52
2023-04-15T09:11:42.471Z,1.15
2023-04-15T09:14:09.682Z,1.08
2023-04-15T09:16:59.499Z,0.35
2023-04-15T09:19:27.206Z,0.73
2023-04-15T09:21:58.893Z,0.80
2023-04-15T09:24:33.723Z,0.68
2023-04-15T09:27:01.133Z,0.52
2023-04-15T09:29:28.008Z,0.68
2023-04-15T09:31:55.117Z,0.60
2023-04-15T09:34:22.590Z,0.70
2023-04-15T09:36:55.035Z,0.73
2023-04-15T09:39:21.961Z,0.85
2023-04-15T09:42:08.199Z,0.75
2023-04-15T09:44:35.722Z,0.50
2023-04-15T09:47:02.813Z,0.70
2023-04-15T09:49:29.858Z,0.40
2023-04-15T09:52:05.768Z,0.35
2023-04-15T09:54:35.512Z,0.28
2023-04-15T09:57:12.351Z,0.35
2023-04-15T09:59:39.530Z,0.80
2023-04-15T10:02:07.508Z,1.05
2023-04-15T10:04:37.164Z,0.55
2023-04-15T10:07:06.243Z,0.60
2023-04-15T10:09:35.488Z,0.30
2023-04-15T10:12:04.817Z,0.45
2023-04-15T10:14:36.450Z,0.90
2023-04-15T10:17:05.215Z,1.42
2023-04-15T10:19:34.284Z,1.73
2023-04-15T10:22:02.140Z,1.38
2023-04-15T10:24:31.161Z,1.95
2023-04-15T10:27:00.301Z,2.05
2023-04-15T10:29:29.869Z,1.90
2023-04-15T10:31:59.898Z,1.27
2023-04-15T10:34:27.677Z,1.75
2023-04-15T10:37:04.610Z,1.60
2023-04-15T10:39:34.490Z,1.13
2023-04-15T10:42:16.163Z,0.60
2023-04-15T10:44:45.206Z,0.90
2023-04-15T10:47:20.479Z,1.15
2023-04-15T10:49:51.228Z,0.85
2023-04-15T10:52:23.766Z,0.80
2023-04-15T10:54:50.807Z,0.30
2023-04-15T10:57:24.095Z,0.75
2023-04-15T11:00:00.056Z,0.57
2023-04-15T11:02:47.295Z,0.50
2023-04-15T11:05:16.210Z,0.52
2023-04-15T11:07:56.168Z,0.20
2023-04-15T11:10:26.002Z,0.43
2023-04-15T11:12:57.316Z,0.47
2023-04-15T11:15:35.188Z,0.70
2023-04-15T11:18:23.027Z,0.90
2023-04-15T11:20:56.580Z,1.08
2023-04-15T11:23:34.792Z,0.70
2023-04-15T11:26:05.564Z,0.70
2023-04-15T11:28:33.178Z,0.43
2023-04-15T11:31:11.362Z,0.40
2023-04-15T11:33:46.099Z,0.73
2023-04-15T11:36:13.905Z,0.28
2023-04-15T11:38:45.118Z,0.47
2023-04-15T11:41:11.866Z,0.47
2023-04-15T11:43:39.096Z,0.30
2023-04-15T11:46:06.059Z,0.25
2023-04-15T11:48:35.781Z,0.43
2023-04-15T11:51:07.582Z,0.50
2023-04-15T11:53:42.165Z,0.22
2023-04-15T11:56:23.818Z,0.30
2023-04-15T11:59:02.314Z,0.38
2023-04-15T12:01:36.463Z,0.50
2023-04-15T12:04:11.989Z,0.40
2023-04-15T12:06:39.233Z,0.35
2023-04-15T12:09:12.426Z,0.50
2023-04-15T12:11:51.057Z,0.30
2023-04-15T12:14:25.599Z,0.40
2023-04-15T12:16:54.375Z,0.40
2023-04-15T12:19:48.468Z,0.30
2023-04-15T12:22:17.123Z,0.45
2023-04-15T12:24:48.982Z,0.60
2023-04-15T12:27:17.056Z,0.20
2023-04-15T12:29:44.402Z,0.40
2023-04-15T12:32:12.226Z,0.50
2023-04-15T12:34:45.106Z,0.63
2023-04-15T12:37:16.035Z,0.50
2023-04-15T12:39:45.950Z,0.40
2023-04-15T12:42:13.024Z,0.30
2023-04-15T12:44:40.703Z,0.60
2023-04-15T12:47:09.326Z,0.43
2023-04-15T12:49:36.404Z,1.08
2023-04-15T12:52:04.185Z,0.65
2023-04-15T12:54:32.288Z,1.30
2023-04-15T12:56:59.449Z,0.98
2023-04-15T12:59:26.608Z,0.90
2023-04-15T13:01:54.609Z,0.93
2023-04-15T13:04:22.499Z,0.85
2023-04-15T13:06:49.785Z,1.45
2023-04-15T13:09:16.967Z,1.80
2023-04-15T13:11:43.825Z,1.13
2023-04-15T13:14:14.175Z,1.63
2023-04-15T13:16:41.503Z,1.80
2023-04-15T13:19:08.796Z,1.65
2023-04-15T13:21:37.543Z,2.00
2023-04-15T13:24:07.245Z,1.38
2023-04-15T13:26:34.207Z,1.40
2023-04-15T13:29:01.387Z,1.20
2023-04-15T13:31:28.262Z,1.00
2023-04-15T13:33:57.181Z,0.55
2023-04-15T13:36:24.162Z,0.73
2023-04-15T13:38:51.664Z,0.70
2023-04-15T13:41:18.786Z,1.00
2023-04-15T13:43:46.305Z,0.80
2023-04-15T13:46:14.050Z,0.70
2023-04-15T13:48:41.433Z,0.88
2023-04-15T13:51:08.207Z,0.98
2023-04-15T13:53:38.441Z,0.85
2023-04-15T13:56:10.117Z,1.05
2023-04-15T13:58:38.211Z,1.30
2023-04-15T14:01:07.115Z,1.35
2023-04-15T14:03:35.848Z,1.58
2023-04-15T14:06:03.110Z,2.05
2023-04-15T14:08:30.237Z,1.58
2023-04-15T14:10:57.723Z,0.73
2023-04-15T14:13:25.078Z,2.70
2023-04-15T14:15:51.997Z,1.73
2023-04-15T14:18:19.226Z,2.00
2023-04-15T14:20:46.182Z,1.65
2023-04-15T14:23:13.283Z,1.95
2023-04-15T14:25:40.077Z,2.42
2023-04-15T14:28:07.160Z,1.48
2023-04-15T14:30:34.076Z,2.42
2023-04-15T14:33:01.205Z,1.70
2023-04-15T14:35:28.098Z,1.20
2023-04-15T14:37:55.720Z,2.25
2023-04-15T14:40:22.811Z,2.47
2023-04-15T14:42:49.947Z,3.28
2023-04-15T14:45:17.723Z,2.20
2023-04-15T14:47:45.092Z,2.30
2023-04-15T14:50:12.282Z,2.92
2023-04-15T14:52:40.673Z,2.88
2023-04-15T14:55:10.394Z,2.25
2023-04-15T14:57:38.585Z,1.08
2023-04-15T15:00:07.372Z,2.15
2023-04-15T15:02:39.700Z,2.28
2023-04-15T15:05:08.699Z,1.30
2023-04-15T15:07:40.685Z,0.82
2023-04-15T15:10:08.184Z,1.63
2023-04-15T15:12:35.517Z,1.70
2023-04-15T15:15:12.480Z,0.90
2023-04-15T15:17:47.076Z,1.25
2023-04-15T15:20:13.927Z,0.52
2023-04-15T15:22:40.981Z,0.93
2023-04-15T15:25:07.877Z,0.50
2023-04-15T15:27:36.519Z,0.98
2023-04-15T15:30:06.863Z,0.45
2023-04-15T15:32:34.110Z,0.60
2023-04-15T15:35:00.978Z,0.50
2023-04-15T15:37:32.839Z,0.45
2023-04-15T15:40:00.968Z,0.45
2023-04-15T15:42:31.793Z,0.68
2023-04-15T15:44:59.052Z,0.77
2023-04-15T15:47:26.941Z,0.22
2023-04-15T15:49:55.000Z,0.13
2023-04-15T15:52:22.206Z,0.73
2023-04-15T15:54:51.680Z,0.43
2023-04-15T15:57:18.750Z,0.63
2023-04-15T15:59:46.326Z,0.80
2023-04-15T16:02:16.757Z,0.90
2023-04-15T16:04:43.690Z,0.80
2023-04-15T16:07:15.774Z,0.70
2023-04-15T16:09:42.684Z,1.02
2023-04-15T16:12:09.773Z,1.23
2023-04-15T16:14:36.646Z,0.70
2023-04-15T16:17:03.710Z,0.50
2023-04-15T16:19:31.023Z,1.20
2023-04-15T16:21:58.313Z,1.13
2023-04-15T16:24:25.839Z,1.52
2023-04-15T16:26:52.939Z,1.63
2023-04-15T16:29:19.740Z,1.35
2023-04-15T16:31:47.549Z,1.58
2023-04-15T16:34:15.888Z,1.65
2023-04-15T16:36:43.161Z,1.70
2023-04-15T16:39:09.928Z,1.65
2023-04-15T16:41:38.522Z,1.25
2023-04-15T16:44:06.589Z,1.52
2023-04-15T16:46:33.691Z,0.85
2023-04-15T16:49:00.894Z,1.50
2023-04-15T16:51:30.461Z,1.40
2023-04-15T16:53:57.366Z,1.00
2023-04-15T16:56:24.453Z,0.65
2023-04-15T16:58:51.241Z,1.60
2023-04-15T17:01:18.632Z,0.90
2023-04-15T17:03:47.721Z,1.52
2023-04-15T17:06:16.111Z,1.50
2023-04-15T17:08:44.185Z,1.08
2023-04-15T17:11:11.864Z,1.52
2023-04-15T17:13:38.982Z,1.35
2023-04-15T17:16:06.479Z,1.20
2023-04-15T17:18:33.329Z,1.60
2023-04-15T17:21:00.558Z,1.92
2023-04-15T17:23:27.404Z,1.17
2023-04-15T17:25:54.540Z,2.22
2023-04-15T17:28:21.508Z,1.73
2023-04-15T17:30:48.697Z,2.00
2023-04-15T17:33:57.661Z,2.25
2023-04-15T17:36:02.830Z,1.80
2023-04-15T17:38:29.708Z,1.90
2023-04-15T17:40:56.891Z,1.95
2023-04-15T17:43:24.189Z,2.20
2023-04-15T17:45:51.404Z,2.65
2023-04-15T17:48:18.191Z,1.17
2023-04-15T17:50:45.247Z,2.28
2023-04-15T17:53:12.049Z,1.90
2023-04-15T17:55:39.122Z,2.28
2023-04-15T17:58:05.969Z,2.28
2023-04-15T18:00:33.105Z,2.53
2023-04-15T18:03:00.055Z,2.25
2023-04-15T18:05:27.292Z,2.53
2023-04-15T18:07:54.291Z,3.28
2023-04-15T18:10:21.759Z,2.97
2023-04-15T18:12:48.553Z,3.35
2023-04-15T18:15:15.822Z,3.42
2023-04-15T18:17:42.810Z,3.65
2023-04-15T18:20:10.618Z,3.60
2023-04-15T18:22:37.481Z,3.85
2023-04-15T18:25:05.117Z,4.47
2023-04-15T18:27:33.851Z,3.83
2023-04-15T18:30:00.927Z,3.25
2023-04-15T18:32:31.264Z,3.90
2023-04-15T18:34:59.005Z,3.28
2023-04-15T18:37:29.245Z,3.28
2023-04-15T18:39:56.733Z,4.78
2023-04-15T18:42:24.669Z,3.10
2023-04-15T18:44:53.067Z,4.60
2023-04-15T18:47:20.327Z,3.80
2023-04-15T18:49:47.559Z,3.92
2023-04-15T18:52:14.391Z,4.43
2023-04-15T18:54:41.482Z,3.15
2023-04-15T18:57:08.271Z,4.50
2023-04-15T18:59:35.607Z,3.75
2023-04-15T19:02:06.436Z,4.72
2023-04-15T19:04:33.667Z,4.38
2023-04-15T19:07:01.677Z,4.80
2023-04-15T19:09:29.352Z,4.40
2023-04-15T19:11:56.951Z,4.55
2023-04-15T19:14:24.659Z,4.85
2023-04-15T19:16:51.612Z,4.38
2023-04-15T19:19:19.018Z,4.55
2023-04-15T19:21:47.554Z,4.78
2023-04-15T19:24:14.762Z,5.97
2023-04-15T19:26:41.587Z,4.60
2023-04-15T19:29:08.716Z,4.60
2023-04-15T19:31:35.569Z,5.32
2023-04-15T19:34:03.092Z,5.97
2023-04-15T19:36:31.493Z,4.75
2023-04-15T19:39:01.049Z,5.18
2023-04-15T19:41:27.841Z,5.07
2023-04-15T19:43:54.974Z,5.05
2023-04-15T19:46:21.864Z,5.38
2023-04-15T19:48:49.066Z,5.43
2023-04-15T19:51:15.889Z,5.30
2023-04-15T19:53:42.964Z,5.03
2023-04-15T19:56:09.820Z,5.40
2023-04-15T19:58:37.462Z,5.38
2023-04-15T20:01:04.311Z,5.50
2023-04-15T20:03:31.706Z,4.88
2023-04-15T20:05:58.700Z,4.95
2023-04-15T20:08:25.803Z,4.65
2023-04-15T20:10:52.589Z,4.82
2023-04-15T20:13:19.632Z,5.38
2023-04-15T20:15:46.522Z,4.97
2023-04-15T20:18:13.576Z,5.32
2023-04-15T20:20:40.784Z,5.43
2023-04-15T20:23:07.885Z,5.18
2023-04-15T20:25:37.796Z,6.03
2023-04-15T20:28:04.878Z,5.63
2023-04-15T20:30:31.795Z,4.82
2023-04-15T20:32:59.568Z,5.13
2023-04-15T20:35:30.689Z,5.20
2023-04-15T20:37:57.848Z,4.38
2023-04-15T20:40:24.585Z,5.50
2023-04-15T20:42:51.800Z,5.40
2023-04-15T20:45:18.680Z,4.55
2023-04-15T20:47:47.009Z,6.18
2023-04-15T20:50:13.828Z,5.72
2023-04-15T20:52:40.943Z,5.07
2023-04-15T20:55:08.221Z,6.03
2023-04-15T20:57:35.462Z,6.03
2023-04-15T21:00:02.371Z,6.18
2023-04-15T21:02:29.542Z,6.18
2023-04-15T21:04:59.161Z,7.55
2023-04-15T21:07:26.309Z,6.72
2023-04-15T21:09:53.184Z,7.65
2023-04-15T21:12:20.484Z,7.20
2023-04-15T21:14:47.280Z,9.35
2023-04-15T21:17:14.432Z,8.45
2023-04-15T21:19:41.245Z,8.55
2023-04-15T21:22:08.561Z,9.00
2023-04-15T21:24:35.500Z,9.07
2023-04-15T21:27:02.702Z,8.70
2023-04-15T21:29:29.676Z,8.35
2023-04-15T21:31:56.870Z,8.85
2023-04-15T21:34:23.832Z,8.73
2023-04-15T21:36:50.969Z,8.70
2023-04-15T21:39:17.946Z,8.57
2023-04-15T21:41:45.085Z,9.63
2023-04-15T21:44:14.462Z,9.35
2023-04-15T21:46:42.289Z,9.23
2023-04-15T21:49:13.153Z,10.43
2023-04-15T21:51:40.332Z,11.18
2023-04-15T21:54:07.179Z,10.40
2023-04-15T21:56:34.380Z,10.68
2023-04-15T21:59:01.447Z,10.95
2023-04-15T22:01:28.655Z,10.55
2023-04-15T22:03:55.735Z,11.00
2023-04-15T22:06:23.026Z,10.45
2023-04-15T22:09:12.030Z,9.88
2023-04-15T22:11:37.284Z,11.40
2023-04-15T22:14:05.286Z,11.07
2023-04-15T22:16:32.444Z,10.40
2023-04-15T22:18:59.310Z,10.90
2023-04-15T22:21:26.867Z,10.30
2023-04-15T22:24:38.792Z,10.73
2023-04-15T22:26:40.944Z,10.32
2023-04-15T22:29:07.797Z,11.13
2023-04-15T22:31:34.963Z,11.48
2023-04-15T22:34:01.900Z,12.15
2023-04-15T22:36:31.185Z,11.32
2023-04-15T22:38:58.122Z,10.38
2023-04-15T22:41:25.138Z,11.80
2023-04-15T22:43:51.902Z,11.90
2023-04-15T22:46:18.964Z,11.30
2023-04-15T22:48:45.976Z,12.32
2023-04-15T22:51:13.021Z,12.25
2023-04-15T22:53:40.957Z,11.75
2023-04-15T22:56:08.049Z,11.63
2023-04-15T22:58:34.921Z,12.32
2023-04-15T23:01:02.054Z,11.48
2023-04-15T23:03:29.043Z,11.40
2023-04-15T23:05:58.537Z,10.93
2023-04-15T23:08:25.419Z,11.35
2023-04-15T23:10:52.507Z,10.00
2023-04-15T23:13:19.313Z,11.63
2023-04-15T23:15:46.405Z,10.82
2023-04-15T23:18:13.362Z,10.75
2023-04-15T23:20:40.812Z,11.32
2023-04-15T23:23:07.620Z,12.18
2023-04-15T23:25:34.729Z,11.43
2023-04-15T23:28:01.572Z,11.43
2023-04-15T23:30:28.757Z,10.05
2023-04-15T23:32:55.554Z,11.13
2023-04-15T23:35:22.684Z,10.88
2023-04-15T23:37:49.436Z,11.40
2023-04-15T23:40:16.776Z,11.63
2023-04-15T23:42:43.633Z,11.80
2023-04-15T23:45:11.455Z,13.10
2023-04-15T23:47:40.861Z,11.23
2023-04-15T23:50:09.020Z,10.85
2023-04-15T23:52:36.416Z,11.88
2023-04-15T23:55:04.335Z,11.98
2023-04-15T23:57:31.502Z,12.57
2023-04-15T23:59:58.706Z,11.38
